createdAt,value
2019-06-01T00:00:11.616Z,15.96
2019-06-01T00:02:57.036Z,15.89
2019-06-01T00:05:43.164Z,15.87
2019-06-01T00:08:29.399Z,15.75
2019-06-01T00:11:15.594Z,15.78
2019-06-01T00:14:01.802Z,15.76
2019-06-01T00:16:48.208Z,15.75
2019-06-01T00:19:34.404Z,15.74
2019-06-01T00:22:20.514Z,15.63
2019-06-01T00:25:06.855Z,15.59
2019-06-01T00:27:52.938Z,15.52
2019-06-01T00:30:39.234Z,15.48
2019-06-01T00:33:25.260Z,15.51
2019-06-01T00:36:11.460Z,15.50
2019-06-01T00:38:57.588Z,15.55
2019-06-01T00:41:43.985Z,15.50
2019-06-01T00:44:30.040Z,15.52
2019-06-01T00:47:16.399Z,15.51
2019-06-01T00:50:02.639Z,15.48
2019-06-01T00:52:49.269Z,15.44
2019-06-01T00:55:35.484Z,15.42
2019-06-01T00:58:21.759Z,15.46
2019-06-01T01:01:07.960Z,15.46
2019-06-01T01:03:54.468Z,15.42
2019-06-01T01:06:40.650Z,15.39
2019-06-01T01:09:26.779Z,15.32
2019-06-01T01:12:12.864Z,15.37
2019-06-01T01:14:58.959Z,15.38
2019-06-01T01:17:45.748Z,15.43
2019-06-01T01:20:32.210Z,15.39
2019-06-01T01:23:18.522Z,15.40
2019-06-01T01:26:04.751Z,15.50
2019-06-01T01:28:51.039Z,15.52
2019-06-01T01:31:36.964Z,15.51
2019-06-01T01:34:23.469Z,15.49
2019-06-01T01:37:09.805Z,15.48
2019-06-01T01:39:56.293Z,15.40
2019-06-01T01:42:42.830Z,15.35
2019-06-01T01:45:29.069Z,15.38
2019-06-01T01:48:15.265Z,15.38
2019-06-01T01:51:02.722Z,15.35
2019-06-01T01:53:50.479Z,15.37
2019-06-01T01:56:37.014Z,15.29
2019-06-01T01:59:23.359Z,15.28
2019-06-01T02:02:09.495Z,15.20
2019-06-01T02:04:55.897Z,15.17
2019-06-01T02:07:42.124Z,15.07
2019-06-01T02:10:28.139Z,15.07
2019-06-01T02:13:14.444Z,15.08
2019-06-01T02:16:00.971Z,15.08
2019-06-01T02:18:48.871Z,15.07
2019-06-01T02:21:35.084Z,15.04
2019-06-01T02:24:21.205Z,15.05
2019-06-01T02:27:07.383Z,15.08
2019-06-01T02:29:53.569Z,14.98
2019-06-01T02:32:39.583Z,14.97
2019-06-01T02:35:25.880Z,14.92
2019-06-01T02:38:12.426Z,14.85
2019-06-01T02:40:58.968Z,14.83
2019-06-01T02:43:45.650Z,14.83
2019-06-01T02:46:35.428Z,14.81
2019-06-01T02:49:22.012Z,14.83
2019-06-01T02:52:08.064Z,14.80
2019-06-01T02:54:55.532Z,14.73
2019-06-01T02:57:42.179Z,14.65
2019-06-01T03:01:22.225Z,14.61
2019-06-01T03:04:09.668Z,14.69
2019-06-01T03:06:55.944Z,14.70
2019-06-01T03:09:42.294Z,14.63
2019-06-01T03:12:29.678Z,14.59
2019-06-01T03:15:16.741Z,14.52
2019-06-01T03:18:03.744Z,14.47
2019-06-01T03:20:50.462Z,14.48
2019-06-01T03:23:38.484Z,14.60
2019-06-01T03:26:26.099Z,14.67
2019-06-01T03:29:14.491Z,14.74
2019-06-01T03:32:19.315Z,14.74
2019-06-01T03:34:48.980Z,14.81
2019-06-01T03:37:35.289Z,14.92
2019-06-01T03:40:24.018Z,15.22
2019-06-01T03:43:09.884Z,15.58
2019-06-01T03:45:55.924Z,15.99
2019-06-01T03:48:42.049Z,16.28
2019-06-01T03:51:28.229Z,16.42
2019-06-01T03:54:14.621Z,16.73
2019-06-01T03:57:00.975Z,16.74
2019-06-01T03:59:47.114Z,17.05
2019-06-01T04:02:33.560Z,17.18
2019-06-01T04:05:19.599Z,17.47
2019-06-01T04:08:05.863Z,17.61
2019-06-01T04:10:52.042Z,17.60
2019-06-01T04:13:38.184Z,17.61
2019-06-01T04:16:24.325Z,17.86
2019-06-01T04:19:10.725Z,17.61
2019-06-01T04:21:56.988Z,17.86
2019-06-01T04:24:43.329Z,18.13
2019-06-01T04:27:29.532Z,18.44
2019-06-01T04:30:15.668Z,18.95
2019-06-01T04:33:02.591Z,19.49
2019-06-01T04:35:48.928Z,19.96
2019-06-01T04:38:37.149Z,20.24
2019-06-01T04:41:23.503Z,20.31
2019-06-01T04:44:10.060Z,20.45
2019-06-01T04:46:56.705Z,21.00
2019-06-01T04:49:43.067Z,21.34
2019-06-01T04:52:29.399Z,21.84
2019-06-01T04:55:15.349Z,21.91
2019-06-01T04:58:02.512Z,21.49
2019-06-01T05:00:48.961Z,21.88
2019-06-01T05:03:34.968Z,21.88
2019-06-01T05:06:21.625Z,22.35
2019-06-01T05:09:09.167Z,22.99
2019-06-01T05:11:55.464Z,23.67
2019-06-01T05:14:42.129Z,24.01
2019-06-01T05:17:28.714Z,24.25
2019-06-01T05:20:16.633Z,24.32
2019-06-01T05:23:03.449Z,24.12
2019-06-01T05:25:53.156Z,24.53
2019-06-01T05:28:38.034Z,24.83
2019-06-01T05:31:25.226Z,26.21
2019-06-01T05:34:11.959Z,26.04
2019-06-01T05:36:58.215Z,25.79
2019-06-01T05:39:44.404Z,25.17
2019-06-01T05:42:31.192Z,24.55
2019-06-01T05:45:19.288Z,24.34
2019-06-01T05:48:06.070Z,24.18
2019-06-01T05:50:52.564Z,24.05
2019-06-01T05:53:38.719Z,24.78
2019-06-01T05:56:25.410Z,25.78
2019-06-01T05:59:12.310Z,25.22
2019-06-01T06:01:58.996Z,25.52
2019-06-01T06:04:45.714Z,25.87
2019-06-01T06:07:32.426Z,26.90
2019-06-01T06:10:19.861Z,26.22
2019-06-01T06:13:06.739Z,26.89
2019-06-01T06:15:53.559Z,26.74
2019-06-01T06:18:39.849Z,26.35
2019-06-01T06:21:26.158Z,26.76
2019-06-01T06:24:12.804Z,26.94
2019-06-01T06:26:58.858Z,27.45
2019-06-01T06:29:44.966Z,27.22
2019-06-01T06:32:31.328Z,26.84
2019-06-01T06:35:17.481Z,27.17
2019-06-01T06:38:03.644Z,26.78
2019-06-01T06:40:49.804Z,26.63
2019-06-01T06:43:35.980Z,26.67
2019-06-01T06:46:22.801Z,26.51
2019-06-01T06:49:10.049Z,26.99
2019-06-01T06:51:56.719Z,27.98
2019-06-01T06:54:42.911Z,27.44
2019-06-01T06:57:28.969Z,27.94
2019-06-01T07:00:16.297Z,27.94
2019-06-01T07:03:03.083Z,29.03
2019-06-01T07:05:49.144Z,28.69
2019-06-01T07:08:35.303Z,29.28
2019-06-01T07:11:21.582Z,28.93
2019-06-01T07:14:07.625Z,28.37
2019-06-01T07:16:53.819Z,28.48
2019-06-01T07:19:40.304Z,28.88
2019-06-01T07:22:27.813Z,28.70
2019-06-01T07:25:14.387Z,28.15
2019-06-01T07:28:00.778Z,28.99
2019-06-01T07:30:50.435Z,28.93
2019-06-01T07:33:35.069Z,27.80
2019-06-01T07:36:22.244Z,29.24
2019-06-01T07:39:08.584Z,29.70
2019-06-01T07:41:54.733Z,29.90
2019-06-01T07:44:42.109Z,30.06
2019-06-01T07:47:29.171Z,29.37
2019-06-01T07:50:15.363Z,28.37
2019-06-01T07:53:01.829Z,28.37
2019-06-01T07:55:47.914Z,29.25
2019-06-01T07:58:34.219Z,28.81
2019-06-01T08:01:22.782Z,28.52
2019-06-01T08:04:09.797Z,29.96
2019-06-01T08:06:56.297Z,28.52
2019-06-01T08:09:43.067Z,29.11
2019-06-01T08:12:29.818Z,29.40
2019-06-01T08:15:17.340Z,29.19
2019-06-01T08:18:03.589Z,29.33
2019-06-01T08:20:50.128Z,29.53
2019-06-01T08:23:36.688Z,29.53
2019-06-01T08:26:24.298Z,29.79
2019-06-01T08:29:10.733Z,29.75
2019-06-01T08:31:57.176Z,30.07
2019-06-01T08:34:44.766Z,28.49
2019-06-01T08:37:31.664Z,28.17
2019-06-01T08:40:18.453Z,28.40
2019-06-01T08:43:04.875Z,29.41
2019-06-01T08:45:51.511Z,29.58
2019-06-01T08:48:37.985Z,28.90
2019-06-01T08:51:26.491Z,30.03
2019-06-01T08:54:13.734Z,30.01
2019-06-01T08:57:00.255Z,29.88
2019-06-01T08:59:46.471Z,29.06
2019-06-01T09:02:32.874Z,28.37
2019-06-01T09:05:24.400Z,29.05
2019-06-01T09:08:10.244Z,28.31
2019-06-01T09:10:56.531Z,28.61
2019-06-01T09:13:43.334Z,28.95
2019-06-01T09:16:29.710Z,29.83
2019-06-01T09:19:15.945Z,29.85
2019-06-01T09:22:02.226Z,29.15
2019-06-01T09:24:48.429Z,29.68
2019-06-01T09:27:35.995Z,28.95
2019-06-01T09:30:22.466Z,28.49
2019-06-01T09:33:08.480Z,28.72
2019-06-01T09:35:56.375Z,28.40
2019-06-01T09:38:43.016Z,28.64
2019-06-01T09:41:29.099Z,28.91
2019-06-01T09:44:15.332Z,28.04
2019-06-01T09:47:01.455Z,28.71
2019-06-01T09:49:47.589Z,28.94
2019-06-01T09:52:33.750Z,29.25
2019-06-01T09:55:19.640Z,29.63
2019-06-01T09:58:05.822Z,29.67
2019-06-01T10:00:52.210Z,30.13
2019-06-01T10:03:38.575Z,28.90
2019-06-01T10:06:24.936Z,29.30
2019-06-01T10:09:11.329Z,29.28
2019-06-01T10:11:58.552Z,29.05
2019-06-01T10:14:44.797Z,29.26
2019-06-01T10:17:33.300Z,29.22
2019-06-01T10:20:20.439Z,28.87
2019-06-01T10:23:09.144Z,28.73
2019-06-01T10:25:55.569Z,28.46
2019-06-01T10:28:43.166Z,29.40
2019-06-01T10:31:32.620Z,29.46
2019-06-01T10:34:17.773Z,30.01
2019-06-01T10:37:04.133Z,29.77
2019-06-01T10:39:50.560Z,27.66
2019-06-01T10:42:38.491Z,28.37
2019-06-01T10:45:27.085Z,28.47
2019-06-01T10:48:13.445Z,28.42
2019-06-01T10:50:59.610Z,28.54
2019-06-01T10:53:45.731Z,29.07
2019-06-01T10:56:32.331Z,29.74
2019-06-01T10:59:18.693Z,29.75
2019-06-01T11:02:04.809Z,30.46
2019-06-01T11:04:51.943Z,29.47
2019-06-01T11:07:39.244Z,29.74
2019-06-01T11:10:25.359Z,30.12
2019-06-01T11:13:11.557Z,29.78
2019-06-01T11:15:57.858Z,29.31
2019-06-01T11:18:43.990Z,27.79
2019-06-01T11:21:30.105Z,28.65
2019-06-01T11:24:17.245Z,28.82
2019-06-01T11:27:04.704Z,29.03
2019-06-01T11:29:51.685Z,29.41
2019-06-01T11:32:39.987Z,29.77
2019-06-01T11:35:26.567Z,29.31
2019-06-01T11:38:12.841Z,29.17
2019-06-01T11:40:58.921Z,28.46
2019-06-01T11:43:46.137Z,28.29
2019-06-01T11:46:32.802Z,27.91
2019-06-01T11:49:21.078Z,28.21
2019-06-01T11:52:07.201Z,28.02
2019-06-01T11:54:54.596Z,27.97
2019-06-01T11:57:41.589Z,27.73
2019-06-01T12:00:29.315Z,26.75
2019-06-01T12:03:15.563Z,26.48
2019-06-01T12:06:01.702Z,26.61
2019-06-01T12:08:48.863Z,27.07
2019-06-01T12:11:36.216Z,27.62
2019-06-01T12:14:22.182Z,27.95
2019-06-01T12:17:08.324Z,27.84
2019-06-01T12:19:54.476Z,28.09
2019-06-01T12:22:40.896Z,27.77
2019-06-01T12:25:26.896Z,28.00
2019-06-01T12:28:14.468Z,27.88
2019-06-01T12:31:01.061Z,27.87
2019-06-01T12:33:48.195Z,27.54
2019-06-01T12:36:35.395Z,27.04
2019-06-01T12:39:21.425Z,27.22
2019-06-01T12:42:07.705Z,27.81
2019-06-01T12:44:54.092Z,28.08
2019-06-01T12:47:40.361Z,28.15
2019-06-01T12:50:27.621Z,27.86
2019-06-01T12:53:14.161Z,27.18
2019-06-01T12:56:00.541Z,27.32
2019-06-01T12:58:48.066Z,27.60
2019-06-01T13:01:34.591Z,27.96
2019-06-01T13:04:20.921Z,28.06
2019-06-01T13:07:07.256Z,28.08
2019-06-01T13:09:53.586Z,28.02
2019-06-01T13:12:40.987Z,28.06
2019-06-01T13:15:27.427Z,27.89
2019-06-01T13:18:14.865Z,28.05
2019-06-01T13:21:02.202Z,28.10
2019-06-01T13:23:49.656Z,28.08
2019-06-01T13:26:36.248Z,27.89
2019-06-01T13:29:22.505Z,28.08
2019-06-01T13:32:08.841Z,27.92
2019-06-01T13:34:55.001Z,27.63
2019-06-01T13:37:42.356Z,27.92
2019-06-01T13:40:28.752Z,27.96
2019-06-01T13:43:15.096Z,27.55
2019-06-01T13:46:01.084Z,27.95
2019-06-01T13:48:47.539Z,27.95
2019-06-01T13:51:33.869Z,27.94
2019-06-01T13:54:21.099Z,27.68
2019-06-01T13:57:08.316Z,27.42
2019-06-01T13:59:55.037Z,27.79
2019-06-01T14:02:41.246Z,27.95
2019-06-01T14:05:27.391Z,27.76
2019-06-01T14:08:27.921Z,27.73
2019-06-01T14:11:04.089Z,27.75
2019-06-01T14:13:50.165Z,27.86
2019-06-01T14:16:36.379Z,27.86
2019-06-01T14:19:22.472Z,27.78
2019-06-01T14:22:08.605Z,27.75
2019-06-01T14:25:10.345Z,27.52
2019-06-01T14:27:43.681Z,27.76
2019-06-01T14:30:29.897Z,27.79
2019-06-01T14:33:16.224Z,27.88
2019-06-01T14:36:02.321Z,27.80
2019-06-01T14:38:50.360Z,27.86
2019-06-01T14:41:36.761Z,28.07
2019-06-01T14:44:22.893Z,27.94
2019-06-01T14:47:09.086Z,27.92
2019-06-01T14:49:55.738Z,27.96
2019-06-01T14:52:42.496Z,28.16
2019-06-01T14:55:28.617Z,28.21
2019-06-01T14:58:14.876Z,28.31
2019-06-01T15:01:01.051Z,28.01
2019-06-01T15:03:48.139Z,27.84
2019-06-01T15:06:34.521Z,27.80
2019-06-01T15:09:20.850Z,27.55
2019-06-01T15:12:07.492Z,27.65
2019-06-01T15:14:53.831Z,27.56
2019-06-01T15:17:39.881Z,27.65
2019-06-01T15:20:28.611Z,27.83
2019-06-01T15:23:14.922Z,27.94
2019-06-01T15:26:01.121Z,28.05
2019-06-01T15:28:47.262Z,28.06
2019-06-01T15:31:33.691Z,28.20
2019-06-01T15:34:19.881Z,28.15
2019-06-01T15:37:06.047Z,28.14
2019-06-01T15:39:54.574Z,28.13
2019-06-01T15:42:40.911Z,28.04
2019-06-01T15:45:27.160Z,27.75
2019-06-01T15:48:13.502Z,27.80
2019-06-01T15:51:05.415Z,27.85
2019-06-01T15:53:48.783Z,27.88
2019-06-01T15:56:38.028Z,27.85
2019-06-01T15:59:25.459Z,27.94
2019-06-01T16:02:11.522Z,27.96
2019-06-01T16:04:59.185Z,27.90
2019-06-01T16:07:45.652Z,27.87
2019-06-01T16:10:31.911Z,27.71
2019-06-01T16:13:17.816Z,27.78
2019-06-01T16:16:05.235Z,27.87
2019-06-01T16:18:51.739Z,27.92
2019-06-01T16:21:38.835Z,27.71
2019-06-01T16:24:25.140Z,27.56
2019-06-01T16:27:12.156Z,27.75
2019-06-01T16:30:00.202Z,27.48
2019-06-01T16:32:46.763Z,27.56
2019-06-01T16:35:32.801Z,27.65
2019-06-01T16:38:19.039Z,27.61
2019-06-01T16:41:05.587Z,27.60
2019-06-01T16:43:51.667Z,27.41
2019-06-01T16:46:39.914Z,27.47
2019-06-01T16:49:27.351Z,27.21
2019-06-01T16:52:13.702Z,27.20
2019-06-01T16:55:00.487Z,27.37
2019-06-01T16:57:46.722Z,27.30
2019-06-01T17:00:33.943Z,27.35
2019-06-01T17:03:20.417Z,27.27
2019-06-01T17:06:06.914Z,27.05
2019-06-01T17:08:53.096Z,27.02
2019-06-01T17:11:39.271Z,27.00
2019-06-01T17:14:25.471Z,26.94
2019-06-01T17:17:11.722Z,26.85
2019-06-01T17:19:58.998Z,26.90
2019-06-01T17:22:45.690Z,26.85
2019-06-01T17:25:31.671Z,26.87
2019-06-01T17:28:17.857Z,26.85
2019-06-01T17:31:04.407Z,26.84
2019-06-01T17:33:50.537Z,26.71
2019-06-01T17:36:36.612Z,26.74
2019-06-01T17:39:22.893Z,26.60
2019-06-01T17:42:09.071Z,26.59
2019-06-01T17:44:55.356Z,26.61
2019-06-01T17:47:41.411Z,26.55
2019-06-01T17:50:27.576Z,26.54
2019-06-01T17:53:13.823Z,26.42
2019-06-01T17:55:59.936Z,26.42
2019-06-01T17:58:46.049Z,26.35
2019-06-01T18:01:32.490Z,26.22
2019-06-01T18:04:18.516Z,26.22
2019-06-01T18:07:05.748Z,26.22
2019-06-01T18:09:52.224Z,26.18
2019-06-01T18:12:39.304Z,26.01
2019-06-01T18:15:25.573Z,26.02
2019-06-01T18:18:12.817Z,25.95
2019-06-01T18:20:59.511Z,25.81
2019-06-01T18:23:49.303Z,25.69
2019-06-01T18:26:36.976Z,25.67
2019-06-01T18:29:23.136Z,25.59
2019-06-01T18:32:09.559Z,25.56
2019-06-01T18:34:55.951Z,25.46
2019-06-01T18:37:42.191Z,25.18
2019-06-01T18:40:28.336Z,25.18
2019-06-01T18:43:17.162Z,25.08
2019-06-01T18:46:03.708Z,24.91
2019-06-01T18:48:50.176Z,24.69
2019-06-01T18:51:36.601Z,24.50
2019-06-01T18:54:22.705Z,24.30
2019-06-01T18:57:15.501Z,24.15
2019-06-01T18:59:56.992Z,23.93
2019-06-01T19:02:43.341Z,23.94
2019-06-01T19:05:30.617Z,23.86
2019-06-01T19:08:17.695Z,23.81
2019-06-01T19:11:05.577Z,23.60
2019-06-01T19:13:51.856Z,23.48
2019-06-01T19:16:38.011Z,23.29
2019-06-01T19:19:24.673Z,23.17
2019-06-01T19:22:11.196Z,23.05
2019-06-01T19:24:58.496Z,22.86
2019-06-01T19:27:44.801Z,22.80
2019-06-01T19:30:37.931Z,22.64
2019-06-01T19:33:24.101Z,22.59
2019-06-01T19:36:11.072Z,22.42
2019-06-01T19:38:58.017Z,22.23
2019-06-01T19:41:45.473Z,22.11
2019-06-01T19:44:31.469Z,21.92
2019-06-01T19:47:19.112Z,21.90
2019-06-01T19:50:06.232Z,21.87
2019-06-01T19:52:52.540Z,21.86
2019-06-01T19:55:38.903Z,21.72
2019-06-01T19:58:25.111Z,21.57
2019-06-01T20:01:14.199Z,21.47
2019-06-01T20:04:00.661Z,21.35
2019-06-01T20:06:46.931Z,21.18
2019-06-01T20:09:33.162Z,21.11
2019-06-01T20:12:20.565Z,20.56
2019-06-01T20:15:07.049Z,20.58
2019-06-01T20:17:54.116Z,20.54
2019-06-01T20:20:39.970Z,20.59
2019-06-01T20:23:26.371Z,20.51
2019-06-01T20:26:13.901Z,20.44
2019-06-01T20:29:02.253Z,20.34
2019-06-01T20:31:48.587Z,20.32
2019-06-01T20:34:34.501Z,20.25
2019-06-01T20:37:20.746Z,20.23
2019-06-01T20:40:07.391Z,20.16
2019-06-01T20:42:53.807Z,20.14
2019-06-01T20:45:40.176Z,20.15
2019-06-01T20:48:26.266Z,20.17
2019-06-01T20:51:13.179Z,20.08
2019-06-01T20:53:59.491Z,19.96
2019-06-01T20:56:45.691Z,19.97
2019-06-01T20:59:31.582Z,19.91
2019-06-01T21:02:18.066Z,19.66
2019-06-01T21:05:05.537Z,19.57
2019-06-01T21:07:51.703Z,19.51
2019-06-01T21:10:37.836Z,19.27
2019-06-01T21:13:24.251Z,19.29
2019-06-01T21:16:10.697Z,19.25
2019-06-01T21:18:57.091Z,19.33
2019-06-01T21:21:43.256Z,19.35
2019-06-01T21:24:29.617Z,19.29
2019-06-01T21:27:16.517Z,19.30
2019-06-01T21:30:03.065Z,19.29
2019-06-01T21:32:49.551Z,19.32
2019-06-01T21:35:35.968Z,19.32
2019-06-01T21:38:22.004Z,19.17
2019-06-01T21:41:08.112Z,19.23
2019-06-01T21:43:54.551Z,19.17
2019-06-01T21:46:40.782Z,19.03
2019-06-01T21:49:26.885Z,19.01
2019-06-01T21:52:13.389Z,19.05
2019-06-01T21:54:59.331Z,19.02
2019-06-01T21:57:46.701Z,18.93
2019-06-01T22:00:37.303Z,18.63
2019-06-01T22:03:23.275Z,18.61
2019-06-01T22:06:09.196Z,18.60
2019-06-01T22:08:55.421Z,18.65
2019-06-01T22:11:41.521Z,18.54
2019-06-01T22:14:27.796Z,18.50
2019-06-01T22:17:14.611Z,18.48
2019-06-01T22:20:00.659Z,18.37
2019-06-01T22:22:46.976Z,18.36
2019-06-01T22:25:33.091Z,18.54
2019-06-01T22:28:20.341Z,18.54
2019-06-01T22:31:07.057Z,18.44
2019-06-01T22:33:53.516Z,18.38
2019-06-01T22:36:39.861Z,18.44
2019-06-01T22:39:26.947Z,18.52
2019-06-01T22:42:13.557Z,18.37
2019-06-01T22:45:02.109Z,18.46
2019-06-01T22:47:48.402Z,18.39
2019-06-01T22:50:34.676Z,18.20
2019-06-01T22:53:22.007Z,18.18
2019-06-01T22:56:08.821Z,18.25
2019-06-01T22:58:55.103Z,18.19
2019-06-01T23:01:41.041Z,18.21
2019-06-01T23:04:27.277Z,18.19
2019-06-01T23:07:13.581Z,18.14
2019-06-01T23:09:59.741Z,18.13
2019-06-01T23:12:45.872Z,18.13
2019-06-01T23:15:32.071Z,17.99
2019-06-01T23:18:18.197Z,17.86
2019-06-01T23:21:04.621Z,17.77
2019-06-01T23:23:50.596Z,17.80
2019-06-01T23:26:36.386Z,17.67
2019-06-01T23:29:23.964Z,17.62
2019-06-01T23:32:10.236Z,17.56
2019-06-01T23:34:56.481Z,17.50
2019-06-01T23:37:42.737Z,17.40
2019-06-01T23:40:30.800Z,17.38
2019-06-01T23:43:16.991Z,17.41
2019-06-01T23:46:03.581Z,17.16
2019-06-01T23:48:50.131Z,17.05
2019-06-01T23:51:36.241Z,16.93
2019-06-01T23:54:23.527Z,17.00
2019-06-01T23:57:09.752Z,17.12
2019-06-01T23:59:55.972Z,17.24
